createdAt,value
2018-07-04T00:02:34.960Z,14.77
2018-07-04T00:05:22.498Z,14.80
2018-07-04T00:08:10.194Z,14.48
2018-07-04T00:10:57.700Z,14.29
2018-07-04T00:13:45.363Z,13.98
2018-07-04T00:16:32.994Z,13.81
2018-07-04T00:19:20.767Z,14.33
2018-07-04T00:22:08.360Z,14.43
2018-07-04T00:24:56.008Z,14.20
2018-07-04T00:27:43.643Z,14.32
2018-07-04T00:30:31.152Z,14.31
2018-07-04T00:33:19.160Z,14.11
2018-07-04T00:36:06.596Z,14.08
2018-07-04T00:38:54.485Z,14.16
2018-07-04T00:41:42.108Z,14.15
2018-07-04T00:44:30.302Z,14.15
2018-07-04T00:47:18.154Z,14.10
2018-07-04T00:50:05.915Z,13.96
2018-07-04T00:52:53.406Z,14.01
2018-07-04T00:55:41.221Z,13.87
2018-07-04T00:58:29.002Z,14.07
2018-07-04T01:01:17.049Z,13.88
2018-07-04T01:04:04.603Z,13.87
2018-07-04T01:06:52.716Z,13.72
2018-07-04T01:09:40.712Z,13.80
2018-07-04T01:12:28.252Z,13.89
2018-07-04T01:15:16.099Z,13.66
2018-07-04T01:18:03.605Z,13.59
2018-07-04T01:20:56.191Z,13.60
2018-07-04T01:23:44.677Z,13.42
2018-07-04T01:26:32.493Z,13.53
2018-07-04T01:29:20.399Z,13.63
2018-07-04T01:32:07.996Z,13.63
2018-07-04T01:34:55.301Z,13.74
2018-07-04T01:37:42.778Z,13.45
2018-07-04T01:40:30.436Z,12.91
2018-07-04T01:43:18.136Z,12.70
2018-07-04T01:46:05.836Z,12.57
2018-07-04T01:48:53.414Z,12.18
2018-07-04T01:51:41.246Z,12.73
2018-07-04T01:54:28.833Z,12.85
2018-07-04T01:57:16.374Z,12.58
2018-07-04T02:00:04.084Z,12.79
2018-07-04T02:02:52.228Z,12.76
2018-07-04T02:05:39.854Z,13.00
2018-07-04T02:08:27.208Z,12.79
2018-07-04T02:11:15.356Z,12.82
2018-07-04T02:14:02.780Z,12.48
2018-07-04T02:16:50.636Z,12.56
2018-07-04T02:19:38.197Z,12.33
2018-07-04T02:22:26.179Z,12.63
2018-07-04T02:25:13.755Z,12.68
2018-07-04T02:28:01.853Z,12.40
2018-07-04T02:30:49.949Z,12.67
2018-07-04T02:33:37.366Z,12.83
2018-07-04T02:36:24.989Z,12.74
2018-07-04T02:39:12.828Z,12.16
2018-07-04T02:42:00.488Z,12.56
2018-07-04T02:44:48.132Z,12.19
2018-07-04T02:47:35.557Z,12.48
2018-07-04T02:50:23.070Z,12.48
2018-07-04T02:53:11.008Z,11.70
2018-07-04T02:55:58.595Z,12.05
2018-07-04T02:58:46.502Z,12.31
2018-07-04T03:01:34.923Z,12.17
2018-07-04T03:04:22.693Z,12.62
2018-07-04T03:07:10.787Z,12.28
2018-07-04T03:09:58.369Z,11.70
2018-07-04T03:12:45.827Z,11.79
2018-07-04T03:15:33.724Z,12.24
2018-07-04T03:18:21.452Z,12.39
2018-07-04T03:21:09.027Z,12.45
2018-07-04T03:23:57.219Z,12.39
2018-07-04T03:26:45.396Z,12.33
2018-07-04T03:29:32.973Z,12.18
2018-07-04T03:32:21.049Z,12.19
2018-07-04T03:35:08.781Z,12.28
2018-07-04T03:37:56.650Z,12.43
2018-07-04T03:40:44.244Z,12.36
2018-07-04T03:43:32.182Z,12.27
2018-07-04T03:46:19.856Z,11.74
2018-07-04T03:49:07.413Z,11.89
2018-07-04T03:51:55.187Z,12.08
2018-07-04T03:54:42.999Z,12.15
2018-07-04T03:57:30.645Z,12.22
2018-07-04T04:00:18.213Z,12.18
2018-07-04T04:03:05.927Z,12.02
2018-07-04T04:05:53.726Z,12.47
2018-07-04T04:08:41.728Z,12.67
2018-07-04T04:11:29.096Z,12.85
2018-07-04T04:14:16.600Z,12.67
2018-07-04T04:17:04.378Z,12.95
2018-07-04T04:19:52.226Z,12.74
2018-07-04T04:22:39.944Z,12.80
2018-07-04T04:25:27.676Z,13.04
2018-07-04T04:28:15.149Z,12.45
2018-07-04T04:31:02.799Z,13.14
2018-07-04T04:33:50.353Z,13.11
2018-07-04T04:36:38.260Z,12.76
2018-07-04T04:39:26.052Z,12.86
2018-07-04T04:42:13.542Z,13.33
2018-07-04T04:45:02.194Z,13.40
2018-07-04T04:47:50.112Z,13.73
2018-07-04T04:50:38.167Z,13.88
2018-07-04T04:53:26.223Z,14.10
2018-07-04T04:56:14.168Z,14.16
2018-07-04T04:59:01.836Z,14.42
2018-07-04T05:01:49.344Z,14.40
2018-07-04T05:04:37.141Z,14.38
2018-07-04T05:07:25.098Z,14.27
2018-07-04T05:10:12.511Z,14.49
2018-07-04T05:13:01.869Z,14.42
2018-07-04T05:15:49.573Z,14.94
2018-07-04T05:18:37.486Z,14.93
2018-07-04T05:21:25.134Z,14.60
2018-07-04T05:24:17.933Z,14.38
2018-07-04T05:27:05.960Z,14.55
2018-07-04T05:29:54.067Z,14.91
2018-07-04T05:32:41.629Z,14.99
2018-07-04T05:35:29.229Z,15.31
2018-07-04T05:38:16.743Z,15.36
2018-07-04T05:41:04.352Z,15.48
2018-07-04T05:43:52.295Z,15.83
2018-07-04T05:46:40.124Z,16.26
2018-07-04T05:49:27.619Z,15.76
2018-07-04T05:52:15.293Z,15.33
2018-07-04T05:55:02.887Z,15.32
2018-07-04T05:57:50.987Z,15.70
2018-07-04T06:00:38.976Z,15.94
2018-07-04T06:03:27.420Z,15.75
2018-07-04T06:06:15.184Z,16.20
2018-07-04T06:09:03.123Z,16.40
2018-07-04T06:11:53.707Z,16.41
2018-07-04T06:14:41.483Z,16.68
2018-07-04T06:17:29.088Z,16.88
2018-07-04T06:20:17.050Z,17.12
2018-07-04T06:23:04.964Z,17.25
2018-07-04T06:25:52.628Z,17.44
2018-07-04T06:28:40.303Z,17.50
2018-07-04T06:31:27.890Z,17.95
2018-07-04T06:34:15.320Z,18.31
2018-07-04T06:37:03.180Z,18.19
2018-07-04T06:39:38.407Z,18.50
2018-07-04T06:42:07.556Z,19.02
2018-07-04T06:44:36.711Z,19.27
2018-07-04T06:47:05.819Z,19.36
2018-07-04T06:49:34.959Z,19.58
2018-07-04T06:52:04.092Z,19.89
2018-07-04T06:54:33.345Z,20.12
2018-07-04T06:57:02.501Z,20.14
2018-07-04T06:59:31.618Z,20.41
2018-07-04T07:02:23.236Z,20.41
2018-07-04T07:05:05.029Z,20.69
2018-07-04T07:07:52.816Z,20.62
2018-07-04T07:10:40.559Z,21.06
2018-07-04T07:13:28.138Z,21.23
2018-07-04T07:16:15.669Z,21.31
2018-07-04T07:19:03.129Z,21.58
2018-07-04T07:21:50.507Z,21.79
2018-07-04T07:24:38.332Z,21.98
2018-07-04T07:27:26.185Z,22.31
2018-07-04T07:30:14.136Z,22.48
2018-07-04T07:33:01.713Z,22.75
2018-07-04T07:35:49.705Z,22.89
2018-07-04T07:38:37.119Z,22.93
2018-07-04T07:41:25.092Z,22.69
2018-07-04T07:44:12.603Z,22.92
2018-07-04T07:47:00.231Z,22.98
2018-07-04T07:49:47.826Z,23.02
2018-07-04T07:52:35.419Z,23.14
2018-07-04T07:55:23.506Z,23.27
2018-07-04T07:58:11.323Z,23.18
2018-07-04T08:00:58.968Z,23.33
2018-07-04T08:03:47.332Z,23.68
2018-07-04T08:09:45.987Z,23.69
2018-07-04T08:12:33.562Z,23.76
2018-07-04T08:15:21.214Z,23.99
2018-07-04T08:18:08.981Z,24.07
2018-07-04T08:20:56.477Z,23.83
2018-07-04T08:23:45.017Z,24.11
2018-07-04T08:26:32.676Z,23.98
2018-07-04T08:29:21.802Z,23.87
2018-07-04T08:32:09.699Z,24.19
2018-07-04T08:34:57.140Z,24.46
2018-07-04T08:37:44.800Z,24.63
2018-07-04T08:40:33.219Z,24.60
2018-07-04T08:43:21.236Z,24.65
2018-07-04T08:46:08.806Z,24.51
2018-07-04T08:48:56.401Z,24.58
2018-07-04T08:51:44.291Z,24.64
2018-07-04T08:54:32.316Z,24.72
2018-07-04T08:57:20.077Z,24.95
2018-07-04T09:00:07.792Z,25.13
2018-07-04T09:02:55.688Z,25.41
2018-07-04T09:05:43.741Z,25.31
2018-07-04T09:08:31.157Z,25.37
2018-07-04T09:11:21.146Z,24.87
2018-07-04T09:14:09.625Z,25.21
2018-07-04T09:16:57.089Z,24.89
2018-07-04T09:19:45.053Z,24.95
2018-07-04T09:22:33.058Z,25.26
2018-07-04T09:25:20.468Z,25.32
2018-07-04T09:28:08.021Z,25.62
2018-07-04T09:30:56.583Z,25.40
2018-07-04T09:33:45.156Z,25.65
2018-07-04T09:36:37.515Z,25.80
2018-07-04T09:39:27.471Z,25.99
2018-07-04T09:42:15.312Z,25.90
2018-07-04T09:45:03.660Z,26.08
2018-07-04T09:47:52.616Z,25.89
2018-07-04T09:50:40.428Z,25.60
2018-07-04T09:53:28.260Z,25.89
2018-07-04T09:56:17.406Z,25.95
2018-07-04T09:59:06.514Z,26.28
2018-07-04T10:01:54.157Z,26.44
2018-07-04T10:04:42.089Z,26.31
2018-07-04T10:07:31.558Z,25.76
2018-07-04T10:10:19.480Z,25.90
2018-07-04T10:13:07.304Z,25.59
2018-07-04T10:16:01.954Z,25.53
2018-07-04T10:21:58.003Z,25.89
2018-07-04T10:24:45.433Z,26.11
2018-07-04T10:27:34.652Z,26.43
2018-07-04T10:30:22.953Z,26.06
2018-07-04T10:33:10.741Z,25.70
2018-07-04T10:35:58.556Z,25.79
2018-07-04T10:38:45.993Z,25.73
2018-07-04T10:41:33.400Z,25.45
2018-07-04T10:44:20.956Z,25.45
2018-07-04T10:47:08.352Z,25.42
2018-07-04T10:49:55.953Z,25.23
2018-07-04T10:52:44.593Z,25.43
2018-07-04T10:55:32.384Z,25.29
2018-07-04T10:58:19.991Z,25.61
2018-07-04T11:01:10.446Z,26.07
2018-07-04T11:04:08.348Z,25.96
2018-07-04T11:06:57.885Z,26.12
2018-07-04T11:09:45.734Z,26.22
2018-07-04T11:12:33.953Z,26.39
2018-07-04T11:15:22.571Z,26.34
2018-07-04T11:18:10.800Z,26.17
2018-07-04T11:20:58.448Z,26.45
2018-07-04T11:23:46.333Z,26.35
2018-07-04T11:26:34.080Z,26.26
2018-07-04T11:29:21.895Z,26.19
2018-07-04T11:32:09.575Z,26.16
2018-07-04T11:34:57.090Z,26.38
2018-07-04T11:37:44.688Z,26.28
2018-07-04T11:40:32.614Z,26.02
2018-07-04T11:43:20.408Z,26.19
2018-07-04T11:45:57.589Z,25.95
2018-07-04T11:48:26.952Z,26.14
2018-07-04T11:50:57.288Z,26.28
2018-07-04T11:53:26.479Z,26.19
2018-07-04T11:55:55.758Z,26.40
2018-07-04T11:58:24.898Z,26.10
2018-07-04T12:00:54.095Z,25.87
2018-07-04T12:03:24.399Z,25.93
2018-07-04T12:06:05.965Z,25.86
2018-07-04T12:08:41.195Z,26.21
2018-07-04T12:11:10.396Z,26.16
2018-07-04T12:13:39.467Z,25.83
2018-07-04T12:16:08.645Z,26.33
2018-07-04T12:18:37.741Z,26.49
2018-07-04T12:21:06.805Z,26.49
2018-07-04T12:23:36.028Z,26.24
2018-07-04T12:26:05.248Z,26.45
2018-07-04T12:28:34.375Z,26.62
2018-07-04T12:31:03.857Z,26.62
2018-07-04T12:33:35.876Z,26.49
2018-07-04T12:36:05.890Z,26.71
2018-07-04T12:38:35.201Z,27.43
2018-07-04T12:41:04.389Z,27.02
2018-07-04T12:43:33.519Z,27.36
2018-07-04T12:46:02.786Z,27.46
2018-07-04T12:48:32.152Z,27.12
2018-07-04T12:51:01.254Z,27.44
2018-07-04T12:53:30.415Z,27.18
2018-07-04T12:56:12.027Z,26.85
2018-07-04T12:58:59.429Z,27.31
2018-07-04T13:01:46.930Z,27.38
2018-07-04T13:04:34.484Z,27.36
2018-07-04T13:07:22.441Z,27.67
2018-07-04T13:10:09.833Z,27.69
2018-07-04T13:12:57.719Z,27.67
2018-07-04T13:15:45.658Z,28.05
2018-07-04T13:18:33.355Z,28.33
2018-07-04T13:21:21.098Z,28.53
2018-07-04T13:24:10.011Z,28.18
2018-07-04T13:26:57.865Z,28.34
2018-07-04T13:29:45.820Z,28.20
2018-07-04T13:32:33.380Z,28.29
2018-07-04T13:35:21.159Z,28.44
2018-07-04T13:38:08.718Z,28.66
2018-07-04T13:40:56.668Z,28.13
2018-07-04T13:43:44.253Z,28.46
2018-07-04T13:46:31.986Z,28.70
2018-07-04T13:49:19.565Z,28.67
2018-07-04T13:52:07.375Z,28.39
2018-07-04T13:54:54.842Z,28.18
2018-07-04T13:57:42.423Z,28.24
2018-07-04T14:00:29.876Z,28.63
2018-07-04T14:03:17.559Z,28.68
2018-07-04T14:06:05.055Z,28.56
2018-07-04T14:08:52.683Z,28.49
2018-07-04T14:11:40.433Z,28.66
2018-07-04T14:14:28.122Z,28.39
2018-07-04T14:17:15.738Z,28.20
2018-07-04T14:20:03.564Z,28.07
2018-07-04T14:22:51.766Z,27.45
2018-07-04T14:25:40.011Z,28.10
2018-07-04T14:28:27.849Z,28.34
2018-07-04T14:31:15.762Z,28.23
2018-07-04T14:34:04.557Z,28.20
2018-07-04T14:36:52.938Z,27.59
2018-07-04T14:39:40.536Z,27.65
2018-07-04T14:42:27.885Z,27.32
2018-07-04T14:45:15.404Z,27.41
2018-07-04T14:48:03.167Z,27.53
2018-07-04T14:50:50.888Z,27.46
2018-07-04T14:53:38.544Z,27.42
2018-07-04T14:56:26.404Z,27.29
2018-07-04T14:59:15.543Z,27.62
2018-07-04T15:02:03.225Z,27.33
2018-07-04T15:04:50.827Z,27.09
2018-07-04T15:07:38.934Z,27.30
2018-07-04T15:10:35.429Z,26.95
2018-07-04T15:13:29.231Z,27.27
2018-07-04T15:16:17.594Z,27.16
2018-07-04T15:19:05.290Z,27.15
2018-07-04T15:21:53.180Z,27.34
2018-07-04T15:24:41.205Z,27.02
2018-07-04T15:27:29.505Z,27.10
2018-07-04T15:30:17.405Z,27.22
2018-07-04T15:33:05.129Z,27.13
2018-07-04T15:35:53.267Z,27.23
2018-07-04T15:38:40.949Z,27.42
2018-07-04T15:41:29.814Z,27.02
2018-07-04T15:44:17.871Z,27.29
2018-07-04T15:47:06.503Z,27.24
2018-07-04T15:49:55.168Z,27.08
2018-07-04T15:52:44.795Z,27.23
2018-07-04T15:55:32.795Z,27.30
2018-07-04T15:58:20.654Z,27.32
2018-07-04T16:01:08.274Z,27.58
2018-07-04T16:03:56.607Z,27.62
2018-07-04T16:06:44.574Z,27.82
2018-07-04T16:09:32.313Z,28.03
2018-07-04T16:12:20.254Z,28.13
2018-07-04T16:15:07.555Z,28.00
2018-07-04T16:17:54.838Z,27.92
2018-07-04T16:20:42.358Z,27.76
2018-07-04T16:23:30.180Z,27.75
2018-07-04T16:26:17.936Z,27.69
2018-07-04T16:29:05.410Z,27.73
2018-07-04T16:31:53.057Z,27.46
2018-07-04T16:34:40.818Z,27.08
2018-07-04T16:37:28.545Z,27.02
2018-07-04T16:40:16.383Z,26.87
2018-07-04T16:43:04.221Z,26.85
2018-07-04T16:45:51.799Z,26.81
2018-07-04T16:48:39.590Z,26.76
2018-07-04T16:51:27.195Z,26.74
2018-07-04T16:54:14.890Z,26.71
2018-07-04T16:57:02.742Z,26.73
2018-07-04T16:59:50.293Z,26.94
2018-07-04T17:02:37.774Z,26.69
2018-07-04T17:05:25.322Z,26.85
2018-07-04T17:08:12.593Z,26.89
2018-07-04T17:11:00.014Z,26.85
2018-07-04T17:13:48.068Z,27.05
2018-07-04T17:16:35.580Z,26.96
2018-07-04T17:19:23.093Z,26.93
2018-07-04T17:22:10.922Z,27.06
2018-07-04T17:24:59.344Z,27.04
2018-07-04T17:27:47.073Z,27.06
2018-07-04T17:30:34.636Z,27.02
2018-07-04T17:33:22.237Z,27.00
2018-07-04T17:36:10.475Z,27.13
2018-07-04T17:38:58.228Z,26.89
2018-07-04T17:41:46.129Z,26.80
2018-07-04T17:44:33.864Z,26.79
2018-07-04T17:47:21.697Z,26.60
2018-07-04T17:50:09.876Z,26.67
2018-07-04T17:52:57.735Z,26.65
2018-07-04T17:55:46.614Z,26.63
2018-07-04T17:58:34.393Z,26.49
2018-07-04T18:01:22.449Z,26.57
2018-07-04T18:04:10.079Z,26.54
2018-07-04T18:06:57.984Z,26.45
2018-07-04T18:09:45.541Z,26.39
2018-07-04T18:12:33.222Z,26.25
2018-07-04T18:15:20.832Z,26.20
2018-07-04T18:18:08.576Z,26.15
2018-07-04T18:20:56.070Z,26.29
2018-07-04T18:23:44.161Z,26.06
2018-07-04T18:26:31.836Z,26.00
2018-07-04T18:29:19.827Z,25.91
2018-07-04T18:32:08.354Z,25.80
2018-07-04T18:34:57.719Z,25.68
2018-07-04T18:37:45.151Z,25.63
2018-07-04T18:40:32.958Z,25.55
2018-07-04T18:43:20.850Z,25.48
2018-07-04T18:46:08.570Z,25.43
2018-07-04T18:48:56.607Z,25.22
2018-07-04T18:51:44.731Z,25.18
2018-07-04T18:54:32.514Z,25.04
2018-07-04T18:57:20.485Z,24.96
2018-07-04T19:00:08.818Z,24.91
2018-07-04T19:02:56.886Z,24.97
2018-07-04T19:05:44.926Z,24.86
2018-07-04T19:08:33.141Z,24.78
2018-07-04T19:11:20.866Z,24.53
2018-07-04T19:14:08.737Z,24.49
2018-07-04T19:16:57.901Z,24.41
2018-07-04T19:19:46.142Z,24.27
2018-07-04T19:22:33.860Z,24.08
2018-07-04T19:25:21.975Z,24.04
2018-07-04T19:28:10.459Z,24.04
2018-07-04T19:30:58.753Z,23.66
2018-07-04T19:33:47.169Z,23.76
2018-07-04T19:36:34.754Z,23.58
2018-07-04T19:39:22.465Z,23.49
2018-07-04T19:42:10.113Z,23.36
2018-07-04T19:44:57.833Z,23.34
2018-07-04T19:47:45.588Z,23.26
2018-07-04T19:50:33.443Z,23.24
2018-07-04T19:53:21.182Z,23.04
2018-07-04T19:56:08.857Z,22.55
2018-07-04T19:58:56.553Z,22.68
2018-07-04T20:01:44.154Z,22.28
2018-07-04T20:04:31.712Z,21.98
2018-07-04T20:07:19.546Z,22.30
2018-07-04T20:10:08.373Z,22.09
2018-07-04T20:12:56.131Z,22.12
2018-07-04T20:15:43.640Z,21.91
2018-07-04T20:18:31.127Z,21.70
2018-07-04T20:21:18.817Z,21.81
2018-07-04T20:24:06.356Z,21.97
2018-07-04T20:26:54.036Z,21.47
2018-07-04T20:29:41.601Z,21.66
2018-07-04T20:32:29.328Z,21.60
2018-07-04T20:35:16.920Z,21.09
2018-07-04T20:38:04.528Z,20.78
2018-07-04T20:40:52.608Z,20.36
2018-07-04T20:43:40.338Z,20.73
2018-07-04T20:46:27.791Z,20.93
2018-07-04T20:49:15.286Z,20.89
2018-07-04T20:52:03.412Z,21.09
2018-07-04T20:54:51.841Z,21.08
2018-07-04T20:57:39.620Z,21.05
2018-07-04T21:00:27.291Z,21.16
2018-07-04T21:03:14.997Z,21.16
2018-07-04T21:06:02.826Z,21.23
2018-07-04T21:08:50.704Z,20.80
2018-07-04T21:11:38.328Z,20.82
2018-07-04T21:14:26.349Z,20.74
2018-07-04T21:17:14.501Z,20.76
2018-07-04T21:20:02.268Z,20.61
2018-07-04T21:22:50.107Z,20.72
2018-07-04T21:25:38.507Z,20.45
2018-07-04T21:28:26.087Z,20.56
2018-07-04T21:31:13.973Z,20.65
2018-07-04T21:34:01.743Z,20.76
2018-07-04T21:36:49.695Z,20.57
2018-07-04T21:39:37.295Z,20.50
2018-07-04T21:42:25.539Z,20.43
2018-07-04T21:45:13.448Z,20.46
2018-07-04T21:48:01.363Z,20.25
2018-07-04T21:50:49.132Z,20.29
2018-07-04T21:53:36.875Z,20.17
2018-07-04T21:56:24.544Z,20.08
2018-07-04T21:59:12.427Z,20.03
2018-07-04T22:02:00.191Z,19.63
2018-07-04T22:04:47.753Z,19.84
2018-07-04T22:07:35.647Z,19.53
2018-07-04T22:10:23.014Z,19.62
2018-07-04T22:13:10.833Z,19.80
2018-07-04T22:15:58.388Z,19.88
2018-07-04T22:18:46.041Z,19.65
2018-07-04T22:21:33.524Z,19.44
2018-07-04T22:24:21.357Z,19.43
2018-07-04T22:27:09.031Z,19.31
2018-07-04T22:29:56.695Z,18.90
2018-07-04T22:32:44.426Z,18.73
2018-07-04T22:35:32.385Z,19.04
2018-07-04T22:38:20.447Z,19.25
2018-07-04T22:41:07.952Z,19.37
2018-07-04T22:43:55.558Z,19.37
2018-07-04T22:46:43.301Z,19.34
2018-07-04T22:49:31.045Z,19.24
2018-07-04T22:52:18.461Z,19.24
2018-07-04T22:55:06.061Z,19.00
2018-07-04T22:57:53.441Z,18.85
2018-07-04T23:00:41.413Z,18.67
2018-07-04T23:03:28.931Z,18.53
2018-07-04T23:06:17.282Z,18.64
2018-07-04T23:09:05.609Z,18.76
2018-07-04T23:11:53.041Z,18.78
2018-07-04T23:14:40.738Z,18.84
2018-07-04T23:17:28.327Z,18.77
2018-07-04T23:20:16.024Z,18.72
2018-07-04T23:23:03.410Z,18.56
2018-07-04T23:25:50.906Z,18.24
2018-07-04T23:28:38.508Z,18.47
2018-07-04T23:31:26.534Z,18.55
2018-07-04T23:34:14.140Z,18.53
2018-07-04T23:37:01.881Z,18.54
2018-07-04T23:39:49.876Z,18.35
2018-07-04T23:42:37.569Z,18.60
2018-07-04T23:45:26.057Z,18.61
2018-07-04T23:48:14.162Z,18.49
2018-07-04T23:51:02.048Z,18.43
2018-07-04T23:53:49.770Z,18.11
2018-07-04T23:56:37.738Z,18.08
2018-07-04T23:59:25.216Z,18.05
